createdAt,value
2022-10-11T00:01:41.848Z,14.60
2022-10-11T00:04:13.746Z,15.20
2022-10-11T00:06:47.220Z,14.20
2022-10-11T00:09:19.031Z,13.90
2022-10-11T00:11:50.743Z,13.80
2022-10-11T00:14:22.410Z,13.10
2022-10-11T00:16:54.509Z,13.00
2022-10-11T00:19:26.224Z,13.20
2022-10-11T00:21:57.927Z,12.90
2022-10-11T00:24:29.795Z,13.70
2022-10-11T00:27:01.496Z,14.30
2022-10-11T00:29:33.332Z,15.50
2022-10-11T00:32:05.887Z,15.80
2022-10-11T00:34:37.679Z,15.90
2022-10-11T00:37:09.566Z,15.00
2022-10-11T00:39:41.258Z,14.60
2022-10-11T00:42:16.010Z,13.90
2022-10-11T00:44:49.589Z,13.50
2022-10-11T00:47:24.585Z,13.90
2022-10-11T00:50:00.424Z,14.40
2022-10-11T00:52:35.848Z,14.20
2022-10-11T00:55:10.864Z,13.20
2022-10-11T00:57:47.431Z,15.10
2022-10-11T01:00:20.395Z,15.30
2022-10-11T01:02:52.199Z,15.90
2022-10-11T01:05:31.691Z,14.90
2022-10-11T01:08:03.734Z,15.80
2022-10-11T01:10:38.406Z,13.80
2022-10-11T01:13:19.198Z,14.90
2022-10-11T01:15:58.303Z,13.50
2022-10-11T01:18:35.354Z,13.30
2022-10-11T01:21:17.374Z,13.10
2022-10-11T01:24:25.396Z,13.50
2022-10-11T01:29:53.666Z,13.70
2022-10-11T01:32:34.787Z,13.50
2022-10-11T01:35:11.576Z,13.40
2022-10-11T01:37:49.186Z,13.50
2022-10-11T01:40:26.230Z,13.80
2022-10-11T01:42:58.786Z,13.60
2022-10-11T01:45:31.583Z,13.80
2022-10-11T01:48:10.248Z,12.80
2022-10-11T01:53:38.776Z,12.20
2022-10-11T01:56:22.677Z,12.40
2022-10-11T01:59:11.457Z,12.50
2022-10-11T02:01:55.737Z,12.40
2022-10-11T02:04:34.781Z,12.30
2022-10-11T02:07:12.032Z,12.50
2022-10-11T02:09:48.273Z,13.40
2022-10-11T02:12:26.371Z,12.90
2022-10-11T02:14:59.963Z,13.90
2022-10-11T02:17:36.785Z,12.80
2022-10-11T02:20:14.410Z,12.60
2022-10-11T02:22:49.582Z,12.80
2022-10-11T02:25:25.255Z,12.20
2022-10-11T02:28:00.592Z,11.90
2022-10-11T02:30:34.247Z,12.60
2022-10-11T02:33:10.905Z,12.90
2022-10-11T02:35:47.268Z,12.60
2022-10-11T02:38:23.571Z,12.60
2022-10-11T02:40:59.081Z,14.20
2022-10-11T02:43:36.681Z,12.70
2022-10-11T02:46:10.626Z,11.90
2022-10-11T02:48:42.314Z,11.10
2022-10-11T02:51:16.057Z,12.10
2022-10-11T02:53:47.784Z,12.10
2022-10-11T02:56:19.520Z,12.30
2022-10-11T02:58:51.454Z,11.50
2022-10-11T03:01:23.299Z,11.70
2022-10-11T03:03:55.167Z,12.10
2022-10-11T03:06:26.832Z,12.10
2022-10-11T03:08:58.608Z,13.50
2022-10-11T03:11:30.369Z,12.50
2022-10-11T03:14:02.086Z,12.00
2022-10-11T03:16:33.840Z,11.20
2022-10-11T03:19:05.626Z,11.90
2022-10-11T03:21:37.503Z,10.60
2022-10-11T03:24:09.946Z,12.50
2022-10-11T03:26:41.810Z,11.40
2022-10-11T03:29:13.815Z,12.10
2022-10-11T03:31:45.596Z,11.50
2022-10-11T03:34:17.239Z,12.10
2022-10-11T03:36:48.985Z,11.50
2022-10-11T03:39:20.915Z,10.90
2022-10-11T03:41:52.583Z,12.10
2022-10-11T03:44:24.293Z,11.40
2022-10-11T03:46:55.910Z,12.00
2022-10-11T03:49:27.676Z,12.50
2022-10-11T03:51:59.327Z,11.00
2022-10-11T03:54:31.311Z,13.00
2022-10-11T03:57:02.984Z,13.30
2022-10-11T03:59:34.782Z,11.70
2022-10-11T04:02:06.553Z,11.40
2022-10-11T04:04:39.555Z,11.90
2022-10-11T04:07:11.381Z,12.00
2022-10-11T04:09:43.075Z,12.80
2022-10-11T04:12:14.747Z,12.40
2022-10-11T04:14:46.459Z,12.10
2022-10-11T04:17:18.427Z,12.20
2022-10-11T04:19:50.161Z,11.10
2022-10-11T04:22:21.874Z,12.00
2022-10-11T04:24:54.336Z,12.10
2022-10-11T04:27:28.271Z,12.10
2022-10-11T04:29:59.968Z,10.40
2022-10-11T04:32:31.627Z,11.20
2022-10-11T04:35:04.865Z,11.60
2022-10-11T04:37:36.825Z,11.80
2022-10-11T04:40:10.989Z,11.90
2022-10-11T04:42:42.823Z,11.60
2022-10-11T04:45:14.692Z,12.30
2022-10-11T04:47:46.402Z,11.00
2022-10-11T04:50:18.494Z,11.50
2022-10-11T04:52:50.487Z,11.70
2022-10-11T04:55:22.300Z,10.60
2022-10-11T04:57:54.438Z,10.90
2022-10-11T05:00:27.535Z,11.00
2022-10-11T05:02:59.532Z,12.00
2022-10-11T05:05:31.760Z,12.30
2022-10-11T05:08:03.833Z,11.30
2022-10-11T05:10:35.825Z,12.00
2022-10-11T05:13:08.026Z,12.80
2022-10-11T05:15:39.875Z,10.90
2022-10-11T05:18:11.842Z,11.40
2022-10-11T05:20:44.045Z,12.30
2022-10-11T05:23:16.446Z,11.80
2022-10-11T05:25:48.304Z,11.40
2022-10-11T05:28:20.294Z,11.80
2022-10-11T05:30:52.090Z,11.80
2022-10-11T05:33:24.280Z,12.40
2022-10-11T05:35:56.108Z,13.50
2022-10-11T05:38:27.955Z,12.50
2022-10-11T05:41:03.328Z,12.70
2022-10-11T05:43:35.199Z,12.40
2022-10-11T05:46:08.180Z,12.50
2022-10-11T05:48:41.100Z,12.20
2022-10-11T05:51:14.363Z,13.80
2022-10-11T05:53:46.288Z,13.20
2022-10-11T05:56:23.216Z,14.40
2022-10-11T05:58:59.916Z,14.70
2022-10-11T06:01:34.119Z,15.00
2022-10-11T06:04:06.176Z,15.30
2022-10-11T06:06:37.990Z,14.80
2022-10-11T06:09:09.991Z,14.70
2022-10-11T06:11:42.627Z,15.00
2022-10-11T06:14:14.536Z,15.20
2022-10-11T06:16:46.477Z,17.60
2022-10-11T06:19:18.538Z,16.60
2022-10-11T06:21:50.373Z,15.50
2022-10-11T06:24:22.252Z,15.60
2022-10-11T06:26:54.643Z,14.30
2022-10-11T06:29:26.552Z,14.80
2022-10-11T06:31:58.663Z,14.80
2022-10-11T06:34:30.563Z,14.20
2022-10-11T06:37:02.374Z,15.00
2022-10-11T06:39:34.705Z,14.90
2022-10-11T06:42:06.705Z,14.90
2022-10-11T06:44:39.645Z,14.20
2022-10-11T06:47:11.529Z,14.10
2022-10-11T06:49:43.348Z,12.10
2022-10-11T06:52:15.195Z,9.70
2022-10-11T06:54:47.100Z,8.80
2022-10-11T06:57:18.762Z,9.30
2022-10-11T06:59:50.635Z,9.00
2022-10-11T07:02:22.296Z,8.50
2022-10-11T07:04:54.446Z,8.30
2022-10-11T07:07:26.545Z,8.00
2022-10-11T07:09:58.476Z,8.00
2022-10-11T07:12:30.503Z,8.60
2022-10-11T07:15:02.179Z,8.70
2022-10-11T07:17:34.087Z,6.60
2022-10-11T07:20:06.788Z,7.90
2022-10-11T07:22:38.722Z,7.30
2022-10-11T07:25:11.378Z,7.30
2022-10-11T07:27:43.291Z,6.60
2022-10-11T07:30:15.630Z,7.70
2022-10-11T07:32:47.392Z,7.40
2022-10-11T07:35:19.863Z,8.00
2022-10-11T07:37:51.966Z,7.90
2022-10-11T07:40:23.988Z,7.40
2022-10-11T07:42:57.034Z,7.20
2022-10-11T07:45:29.970Z,7.90
2022-10-11T07:48:02.599Z,7.30
2022-10-11T07:50:35.987Z,8.10
2022-10-11T07:53:08.118Z,6.40
2022-10-11T07:55:40.890Z,6.60
2022-10-11T07:58:14.098Z,6.10
2022-10-11T08:00:46.241Z,6.40
2022-10-11T08:03:18.082Z,6.80
2022-10-11T08:05:52.207Z,7.40
2022-10-11T08:08:24.512Z,7.50
2022-10-11T08:10:57.531Z,8.40
2022-10-11T08:13:29.906Z,7.30
2022-10-11T08:16:03.161Z,6.90
2022-10-11T08:18:40.257Z,7.30
2022-10-11T08:21:14.848Z,7.80
2022-10-11T08:23:47.123Z,7.20
2022-10-11T08:26:19.633Z,8.10
2022-10-11T08:28:51.571Z,7.30
2022-10-11T08:31:23.360Z,7.10
2022-10-11T08:33:55.807Z,7.00
2022-10-11T08:36:27.661Z,7.10
2022-10-11T08:38:59.527Z,7.00
2022-10-11T08:41:38.895Z,7.80
2022-10-11T08:44:21.999Z,7.90
2022-10-11T08:47:03.018Z,8.30
2022-10-11T08:49:36.163Z,8.30
2022-10-11T08:52:16.417Z,9.30
2022-10-11T08:54:53.145Z,8.10
2022-10-11T08:57:27.586Z,7.50
2022-10-11T09:00:04.552Z,8.70
2022-10-11T09:03:07.639Z,8.60
2022-10-11T09:05:50.780Z,8.30
2022-10-11T09:08:28.675Z,8.00
2022-10-11T09:11:05.751Z,8.60
2022-10-11T09:14:03.115Z,9.50
2022-10-11T09:16:48.705Z,8.50
2022-10-11T09:19:40.756Z,9.50
2022-10-11T09:22:28.083Z,9.10
2022-10-11T09:25:18.062Z,8.50
2022-10-11T09:28:02.923Z,8.50
2022-10-11T09:30:38.327Z,8.40
2022-10-11T09:33:18.918Z,9.10
2022-10-11T09:35:53.498Z,8.20
2022-10-11T09:38:36.947Z,9.00
2022-10-11T09:41:15.357Z,9.00
2022-10-11T09:43:51.390Z,10.00
2022-10-11T09:46:25.965Z,9.90
2022-10-11T09:48:59.654Z,9.60
2022-10-11T09:51:32.424Z,9.30
2022-10-11T09:54:06.474Z,9.20
2022-10-11T09:56:45.280Z,8.90
2022-10-11T09:59:30.566Z,9.70
2022-10-11T10:02:28.750Z,8.90
2022-10-11T10:05:03.702Z,8.30
2022-10-11T10:07:36.862Z,8.00
2022-10-11T10:10:31.123Z,9.30
2022-10-11T10:13:05.155Z,9.70
2022-10-11T10:15:38.657Z,9.60
2022-10-11T10:18:22.903Z,10.40
2022-10-11T10:20:57.784Z,9.50
2022-10-11T10:23:32.109Z,9.10
2022-10-11T10:26:21.072Z,9.10
2022-10-11T10:29:06.087Z,9.60
2022-10-11T10:32:08.777Z,10.00
2022-10-11T10:34:36.475Z,10.20
2022-10-11T10:37:19.999Z,10.40
2022-10-11T10:39:56.471Z,10.00
2022-10-11T10:42:29.114Z,9.60
2022-10-11T10:45:01.732Z,9.70
2022-10-11T10:47:53.756Z,9.70
2022-10-11T10:50:30.638Z,10.20
2022-10-11T10:53:16.461Z,10.30
2022-10-11T10:55:53.316Z,9.40
2022-10-11T10:58:35.884Z,11.20
2022-10-11T11:01:17.172Z,10.40
2022-10-11T11:03:54.628Z,10.30
2022-10-11T11:06:37.066Z,10.20
2022-10-11T11:09:26.438Z,10.20
2022-10-11T11:12:08.621Z,10.50
2022-10-11T11:14:50.649Z,10.60
2022-10-11T11:17:33.307Z,10.80
2022-10-11T11:20:18.608Z,10.80
2022-10-11T11:23:01.183Z,10.90
2022-10-11T11:25:44.811Z,10.70
2022-10-11T11:28:40.212Z,10.10
2022-10-11T11:31:26.040Z,11.30
2022-10-11T11:34:06.670Z,11.30
2022-10-11T11:36:43.450Z,11.30
2022-10-11T11:39:20.434Z,11.00
2022-10-11T11:41:57.454Z,11.50
2022-10-11T11:44:34.377Z,11.40
2022-10-11T11:47:12.218Z,11.00
2022-10-11T11:49:47.199Z,11.30
2022-10-11T11:52:27.048Z,11.60
2022-10-11T11:55:05.696Z,11.30
2022-10-11T11:57:53.457Z,11.20
2022-10-11T12:03:01.707Z,10.90
2022-10-11T12:05:37.461Z,11.40
2022-10-11T12:08:25.895Z,11.80
2022-10-11T12:11:04.914Z,10.70
2022-10-11T12:13:39.069Z,10.40
2022-10-11T12:16:13.679Z,10.70
2022-10-11T12:18:56.003Z,12.60
2022-10-11T12:21:34.608Z,11.00
2022-10-11T12:24:22.660Z,11.60
2022-10-11T12:26:57.945Z,11.10
2022-10-11T12:29:50.812Z,12.10
2022-10-11T12:32:52.615Z,12.20
2022-10-11T12:35:57.367Z,11.90
2022-10-11T12:38:30.420Z,12.50
2022-10-11T12:41:22.670Z,12.30
2022-10-11T12:44:27.060Z,12.50
2022-10-11T12:47:24.120Z,12.70
2022-10-11T12:50:14.462Z,13.10
2022-10-11T12:53:01.103Z,12.70
2022-10-11T12:55:53.228Z,13.70
2022-10-11T12:58:30.778Z,11.00
2022-10-11T13:01:17.584Z,11.30
2022-10-11T13:03:58.418Z,12.50
2022-10-11T13:06:33.408Z,13.00
2022-10-11T13:09:16.704Z,11.80
2022-10-11T13:11:52.227Z,11.60
2022-10-11T13:14:26.639Z,14.20
2022-10-11T13:17:16.164Z,12.30
2022-10-11T13:19:52.391Z,13.00
2022-10-11T13:22:26.450Z,13.20
2022-10-11T13:24:59.376Z,13.50
2022-10-11T13:27:31.278Z,13.00
2022-10-11T13:30:08.609Z,13.10
2022-10-11T13:32:40.518Z,12.20
2022-10-11T13:35:23.934Z,13.20
2022-10-11T13:37:57.820Z,12.10
2022-10-11T13:40:30.625Z,11.90
2022-10-11T13:43:05.300Z,12.00
2022-10-11T13:45:39.290Z,12.40
2022-10-11T13:48:16.860Z,12.60
2022-10-11T13:51:08.068Z,13.30
2022-10-11T13:53:57.352Z,12.80
2022-10-11T13:56:31.074Z,13.30
2022-10-11T13:59:04.046Z,13.90
2022-10-11T14:01:41.991Z,16.10
2022-10-11T14:06:54.738Z,13.30
2022-10-11T14:09:31.687Z,13.10
2022-10-11T14:12:30.387Z,12.80
2022-10-11T14:15:04.220Z,13.30
2022-10-11T14:17:42.135Z,14.60
2022-10-11T14:20:22.826Z,14.40
2022-10-11T14:22:55.178Z,27.00
2022-10-11T14:25:28.439Z,17.80
2022-10-11T14:28:01.388Z,18.00
2022-10-11T14:30:33.159Z,15.10
2022-10-11T14:33:06.517Z,14.20
2022-10-11T14:35:38.812Z,14.50
2022-10-11T14:38:13.001Z,14.30
2022-10-11T14:40:45.048Z,13.90
2022-10-11T14:43:16.881Z,14.90
2022-10-11T14:45:50.055Z,14.20
2022-10-11T14:48:42.991Z,15.30
2022-10-11T14:51:17.191Z,15.20
2022-10-11T14:53:48.947Z,16.90
2022-10-11T14:56:21.784Z,19.10
2022-10-11T14:58:53.810Z,19.20
2022-10-11T15:01:26.528Z,19.50
2022-10-11T15:03:58.370Z,17.90
2022-10-11T15:06:34.051Z,17.00
2022-10-11T15:09:06.375Z,16.80
2022-10-11T15:11:39.064Z,18.70
2022-10-11T15:14:10.927Z,19.20
2022-10-11T15:16:42.676Z,20.50
2022-10-11T15:19:17.593Z,19.00
2022-10-11T15:21:49.871Z,19.50
2022-10-11T15:24:21.697Z,18.50
2022-10-11T15:26:53.499Z,17.80
2022-10-11T15:29:25.868Z,16.60
2022-10-11T15:31:58.113Z,19.20
2022-10-11T15:34:30.096Z,19.10
2022-10-11T15:37:01.910Z,20.00
2022-10-11T15:39:33.990Z,19.40
2022-10-11T15:42:08.148Z,20.10
2022-10-11T15:44:40.452Z,21.30
2022-10-11T15:47:12.512Z,20.50
2022-10-11T15:49:44.313Z,21.80
2022-10-11T15:52:15.965Z,20.80
2022-10-11T15:54:47.683Z,22.10
2022-10-11T15:57:19.376Z,22.40
2022-10-11T15:59:51.097Z,21.60
2022-10-11T16:02:22.902Z,23.20
2022-10-11T16:04:55.527Z,21.80
2022-10-11T16:07:29.076Z,22.50
2022-10-11T16:10:00.850Z,23.40
2022-10-11T16:12:33.845Z,21.60
2022-10-11T16:15:06.338Z,21.40
2022-10-11T16:17:38.461Z,20.10
2022-10-11T16:20:11.293Z,21.50
2022-10-11T16:22:43.457Z,21.20
2022-10-11T16:25:15.737Z,23.20
2022-10-11T16:27:48.381Z,22.30
2022-10-11T16:30:21.409Z,26.20
2022-10-11T16:32:53.616Z,25.10
2022-10-11T16:35:30.172Z,25.40
2022-10-11T16:38:05.173Z,26.80
2022-10-11T16:40:37.962Z,27.30
2022-10-11T16:43:10.405Z,26.70
2022-10-11T16:45:42.181Z,26.70
2022-10-11T16:48:13.928Z,26.50
2022-10-11T16:50:46.030Z,26.80
2022-10-11T16:53:21.708Z,25.20
2022-10-11T16:55:54.042Z,26.50
2022-10-11T16:58:25.818Z,31.90
2022-10-11T17:00:57.741Z,33.20
2022-10-11T17:03:29.559Z,31.40
2022-10-11T17:06:01.353Z,29.20
2022-10-11T17:08:33.347Z,25.60
2022-10-11T17:11:06.256Z,24.50
2022-10-11T17:13:37.991Z,25.30
2022-10-11T17:16:10.512Z,29.10
2022-10-11T17:18:42.619Z,34.30
2022-10-11T17:21:17.336Z,27.90
2022-10-11T17:23:49.563Z,48.30
2022-10-11T17:26:24.963Z,40.10
2022-10-11T17:28:57.893Z,30.40
2022-10-11T17:31:30.988Z,26.90
2022-10-11T17:34:03.300Z,25.60
2022-10-11T17:36:35.743Z,25.10
2022-10-11T17:39:10.137Z,24.50
2022-10-11T17:41:42.037Z,23.20
2022-10-11T17:44:17.386Z,23.40
2022-10-11T17:46:49.684Z,22.80
2022-10-11T17:49:21.521Z,24.00
2022-10-11T17:51:53.386Z,23.60
2022-10-11T17:54:25.410Z,23.00
2022-10-11T17:56:58.333Z,22.60
2022-10-11T17:59:32.260Z,21.30
2022-10-11T18:02:04.221Z,20.90
2022-10-11T18:04:35.940Z,22.90
2022-10-11T18:07:07.727Z,22.10
2022-10-11T18:09:41.805Z,20.50
2022-10-11T18:12:13.539Z,23.60
2022-10-11T18:14:45.510Z,24.70
2022-10-11T18:17:17.278Z,26.10
2022-10-11T18:19:49.094Z,27.00
2022-10-11T18:22:21.507Z,26.80
2022-10-11T18:24:53.514Z,25.70
2022-10-11T18:27:25.202Z,26.70
2022-10-11T18:29:57.585Z,27.30
2022-10-11T18:32:29.278Z,30.10
2022-10-11T18:35:01.016Z,30.70
2022-10-11T18:37:33.607Z,31.30
2022-10-11T18:40:05.773Z,31.10
2022-10-11T18:42:37.567Z,29.50
2022-10-11T18:45:11.564Z,30.40
2022-10-11T18:47:43.377Z,31.30
2022-10-11T18:50:15.337Z,31.40
2022-10-11T18:52:48.624Z,31.90
2022-10-11T18:55:20.732Z,28.80
2022-10-11T18:57:52.566Z,29.30
2022-10-11T19:00:40.136Z,28.60
2022-10-11T19:03:13.178Z,27.90
2022-10-11T19:05:44.845Z,31.20
2022-10-11T19:08:16.618Z,33.10
2022-10-11T19:10:48.809Z,32.90
2022-10-11T19:13:20.890Z,35.60
2022-10-11T19:15:52.636Z,35.50
2022-10-11T19:18:25.606Z,34.10
2022-10-11T19:20:57.366Z,35.10
2022-10-11T19:23:32.264Z,32.10
2022-10-11T19:26:04.540Z,31.90
2022-10-11T19:28:36.830Z,31.80
2022-10-11T19:31:11.159Z,31.40
2022-10-11T19:33:42.965Z,30.30
2022-10-11T19:36:15.815Z,29.50
2022-10-11T19:38:50.140Z,31.50
2022-10-11T19:41:22.500Z,34.10
2022-10-11T19:43:54.774Z,37.30
2022-10-11T19:49:22.770Z,32.60
2022-10-11T19:51:55.988Z,29.80
2022-10-11T19:54:27.925Z,29.00
2022-10-11T19:56:59.645Z,30.30
2022-10-11T19:59:31.371Z,31.80
2022-10-11T20:02:03.100Z,31.50
2022-10-11T20:04:51.542Z,32.10
2022-10-11T20:07:24.133Z,33.30
2022-10-11T20:09:55.829Z,34.30
2022-10-11T20:12:29.383Z,34.90
2022-10-11T20:15:01.586Z,36.10
2022-10-11T20:17:47.206Z,34.90
2022-10-11T20:20:20.087Z,46.20
2022-10-11T20:22:53.693Z,27.20
2022-10-11T20:25:25.779Z,24.50
2022-10-11T20:27:57.452Z,24.00
2022-10-11T20:30:29.160Z,29.10
2022-10-11T20:33:01.069Z,30.20
2022-10-11T20:35:32.897Z,33.60
2022-10-11T20:38:07.779Z,29.60
2022-10-11T20:40:42.302Z,19.90
2022-10-11T20:43:14.935Z,20.40
2022-10-11T20:45:47.413Z,21.50
2022-10-11T20:48:19.184Z,19.80
2022-10-11T20:50:51.277Z,22.30
2022-10-11T20:53:23.063Z,20.40
2022-10-11T20:55:55.052Z,20.50
2022-10-11T20:58:26.867Z,21.00
2022-10-11T21:01:00.015Z,20.60
2022-10-11T21:03:31.909Z,20.70
2022-10-11T21:06:03.660Z,20.50
2022-10-11T21:08:36.084Z,21.10
2022-10-11T21:11:09.053Z,22.50
2022-10-11T21:13:41.249Z,21.20
2022-10-11T21:16:15.586Z,19.90
2022-10-11T21:18:50.937Z,20.50
2022-10-11T21:21:23.975Z,18.40
2022-10-11T21:23:57.729Z,20.30
2022-10-11T21:26:30.250Z,20.10
2022-10-11T21:29:04.632Z,20.90
2022-10-11T21:31:36.842Z,24.60
2022-10-11T21:34:08.971Z,23.80
2022-10-11T21:36:40.915Z,23.20
2022-10-11T21:39:12.641Z,23.50
2022-10-11T21:41:44.341Z,24.00
2022-10-11T21:44:16.065Z,24.60
2022-10-11T21:47:06.039Z,23.40
2022-10-11T21:49:38.997Z,23.40
2022-10-11T21:52:11.555Z,24.80
2022-10-11T21:54:43.265Z,25.40
2022-10-11T21:57:15.140Z,24.10
2022-10-11T21:59:46.849Z,22.10
2022-10-11T22:02:18.521Z,24.30
2022-10-11T22:04:50.194Z,22.70
2022-10-11T22:07:21.895Z,23.90
2022-10-11T22:09:53.690Z,23.30
2022-10-11T22:12:25.632Z,21.30
2022-10-11T22:14:57.354Z,22.00
2022-10-11T22:17:29.062Z,20.60
2022-10-11T22:20:00.797Z,19.90
2022-10-11T22:22:32.695Z,19.00
2022-10-11T22:25:05.294Z,19.50
2022-10-11T22:27:37.051Z,18.80
2022-10-11T22:30:12.146Z,18.50
2022-10-11T22:32:43.908Z,20.40
2022-10-11T22:35:15.580Z,22.20
2022-10-11T22:37:47.260Z,19.50
2022-10-11T22:40:19.455Z,21.40
2022-10-11T22:42:51.323Z,21.40
2022-10-11T22:45:23.548Z,20.50
2022-10-11T22:47:55.379Z,19.20
2022-10-11T22:50:27.071Z,19.80
2022-10-11T22:52:58.813Z,19.60
2022-10-11T22:55:30.642Z,21.00
2022-10-11T22:58:02.710Z,20.00
2022-10-11T23:00:34.996Z,20.10
2022-10-11T23:03:07.217Z,20.70
2022-10-11T23:05:38.935Z,19.60
2022-10-11T23:08:11.064Z,20.80
2022-10-11T23:10:42.777Z,22.30
2022-10-11T23:13:14.399Z,22.90
2022-10-11T23:15:46.554Z,21.10
2022-10-11T23:18:19.393Z,20.80
2022-10-11T23:20:51.085Z,21.60
2022-10-11T23:23:22.764Z,20.30
2022-10-11T23:26:04.859Z,21.70
2022-10-11T23:28:36.691Z,21.00
2022-10-11T23:31:13.582Z,22.40
2022-10-11T23:33:45.571Z,22.20
2022-10-11T23:36:18.958Z,22.30
2022-10-11T23:38:55.247Z,22.50
2022-10-11T23:41:29.099Z,22.20
2022-10-11T23:44:00.807Z,23.60
2022-10-11T23:46:32.564Z,24.10
2022-10-11T23:49:04.564Z,24.00
2022-10-11T23:51:36.404Z,22.40
2022-10-11T23:54:08.522Z,24.60
2022-10-11T23:56:40.543Z,24.50
2022-10-11T23:59:12.286Z,23.00
